Time;durP1;ratioP1;P1;durP2;ratioP2;P2;SDS_P1;SDS_P2;PMS_P1;PMS_P2;Temp;Humidity;BMP_temperature;BMP_pressure;BME280_temperature;BME280_humidity;BME280_pressure;Samples;Min_cycle;Max_cycle;Signal;HPM_P1;HPM_P2
2023/05/23 00:00:22;;;;;;;6.88;4.18;;;;;;;15.73;100.00;100103.06;5009564;28;20034;-68
2023/05/23 00:02:48;;;;;;;8.82;4.20;;;;;;;15.45;100.00;100126.19;5009870;28;20117;-72
2023/05/23 00:05:16;;;;;;;6.32;4.35;;;;;;;15.22;100.00;100123.31;5009375;28;20061;-70
2023/05/23 00:07:45;;;;;;;9.20;3.92;;;;;;;15.09;100.00;100124.88;5010225;28;20418;-68
2023/05/23 00:10:11;;;;;;;7.18;4.43;;;;;;;15.02;100.00;100123.06;5009867;28;20030;-70
2023/05/23 00:12:38;;;;;;;5.15;4.10;;;;;;;14.40;100.00;100028.63;5009834;28;20508;-68
2023/05/23 00:15:06;;;;;;;7.25;4.38;;;;;;;14.93;100.00;100108.22;5010144;28;20030;-70
2023/05/23 00:17:32;;;;;;;7.75;4.47;;;;;;;14.96;100.00;100130.75;5007302;28;20575;-71
2023/05/23 00:19:57;;;;;;;8.77;4.30;;;;;;;14.96;100.00;100122.97;5009608;28;20030;-72
2023/05/23 00:22:23;;;;;;;9.25;4.30;;;;;;;15.05;100.00;100130.88;4996227;28;20049;-69
2023/05/23 00:24:48;;;;;;;8.10;4.53;;;;;;;15.20;100.00;100125.00;5007996;28;20025;-69
2023/05/23 00:27:14;;;;;;;8.63;4.55;;;;;;;15.10;100.00;100112.75;5008260;28;20409;-70
2023/05/23 00:29:39;;;;;;;7.72;4.30;;;;;;;15.14;100.00;100117.13;5007456;28;20482;-71
2023/05/23 00:32:05;;;;;;;9.73;4.72;;;;;;;15.19;100.00;100115.47;5002896;28;20046;-73
2023/05/23 00:34:30;;;;;;;8.55;4.60;;;;;;;15.14;100.00;100101.53;5005141;28;20032;-69
2023/05/23 00:36:57;;;;;;;8.45;4.50;;;;;;;15.25;100.00;100106.84;5011952;28;20464;-70
2023/05/23 00:39:22;;;;;;;9.88;4.55;;;;;;;15.25;100.00;100093.84;5013122;28;20022;-72
2023/05/23 00:41:49;;;;;;;8.38;3.90;;;;;;;15.39;100.00;100118.31;5010089;28;20075;-69
2023/05/23 00:44:15;;;;;;;5.55;4.13;;;;;;;15.39;100.00;100113.09;5011235;28;20036;-76
2023/05/23 00:46:44;;;;;;;8.07;3.90;;;;;;;15.35;100.00;100113.91;5013277;28;20030;-69
2023/05/23 00:49:10;;;;;;;;;;;;;;;15.25;100.00;100114.66;5013265;28;20064;-73
2023/05/23 00:51:36;;;;;;;6.40;4.32;;;;;;;15.24;100.00;100106.00;5013362;28;19913;-70
2023/05/23 00:54:03;;;;;;;6.15;4.03;;;;;;;15.25;100.00;100115.53;5012175;28;20109;-71
2023/05/23 00:56:29;;;;;;;7.68;4.18;;;;;;;14.74;100.00;100010.06;5006712;28;20030;-70
2023/05/23 00:58:55;;;;;;;10.05;4.43;;;;;;;15.26;100.00;100093.00;5002268;28;20031;-69
2023/05/23 01:01:21;;;;;;;8.60;3.75;;;;;;;15.30;100.00;100110.38;4992156;28;20410;-70
2023/05/23 01:03:47;;;;;;;6.78;4.20;;;;;;;15.09;100.00;100103.19;4993341;28;20028;-73
2023/05/23 01:06:13;;;;;;;5.22;4.05;;;;;;;14.84;100.00;100105.47;4992413;28;20431;-70
2023/05/23 01:08:41;;;;;;;8.93;4.35;;;;;;;14.33;100.00;100102.09;4993016;28;20041;-69
2023/05/23 01:11:26;;;;;;;8.82;4.90;;;;;;;13.97;100.00;100105.84;4993301;28;20033;-69
2023/05/23 01:13:59;;;;;;;8.40;4.70;;;;;;;13.47;100.00;100094.59;4992910;28;20038;-68
2023/05/23 01:16:37;;;;;;;7.05;5.13;;;;;;;13.04;100.00;100037.53;4993312;28;20092;-75
2023/05/23 01:19:12;;;;;;;7.75;5.47;;;;;;;13.61;100.00;100110.41;4993247;28;20029;-69
2023/05/23 01:21:39;;;;;;;10.48;5.28;;;;;;;13.66;100.00;100105.31;4992956;28;20509;-69
2023/05/23 01:24:46;;;;;;;8.07;5.45;;;;;;;13.83;100.00;100103.00;4993207;28;20046;-68
2023/05/23 01:27:29;;;;;;;6.13;4.95;;;;;;;13.99;100.00;100107.59;4993252;28;20030;-69
2023/05/23 01:29:57;;;;;;;6.35;5.32;;;;;;;13.99;100.00;100089.44;4993347;28;20066;-69
2023/05/23 01:32:25;;;;;;;9.35;4.68;;;;;;;14.17;100.00;100099.28;4993211;28;20022;-69
2023/05/23 01:34:53;;;;;;;8.60;5.18;;;;;;;14.14;100.00;100101.78;4992950;28;20040;-69
2023/05/23 01:37:18;;;;;;;6.18;4.75;;;;;;;14.18;100.00;100100.13;4991652;28;20401;-69
2023/05/23 01:39:44;;;;;;;9.10;4.82;;;;;;;13.89;100.00;100041.72;4992936;28;20034;-69
2023/05/23 01:42:11;;;;;;;8.07;5.00;;;;;;;14.30;100.00;100117.63;4992983;28;20398;-70
2023/05/23 01:44:37;;;;;;;8.18;4.32;;;;;;;14.32;100.00;100106.44;4992919;28;20433;-69
2023/05/23 01:47:04;;;;;;;6.97;4.50;;;;;;;14.36;100.00;100099.56;4990996;28;20110;-69
2023/05/23 01:49:30;;;;;;;5.95;4.32;;;;;;;14.21;100.00;100075.09;4993103;28;20073;-69
2023/05/23 01:51:57;;;;;;;9.50;4.25;;;;;;;14.30;100.00;100108.13;4992609;28;20038;-69
2023/05/23 01:54:23;;;;;;;6.70;4.47;;;;;;;14.26;100.00;100110.66;4992913;28;20062;-69
2023/05/23 14:59:28;;;;;;;8.23;2.95;;;;;;;25.77;59.91;99982.38;4885054;29;20346;-71
2023/05/23 15:01:53;;;;;;;5.43;2.75;;;;;;;25.80;59.46;100000.78;4894941;29;20032;-71
2023/05/23 15:04:19;;;;;;;7.60;3.30;;;;;;;25.77;59.68;99992.94;4894465;29;20025;-72
2023/05/23 15:06:45;;;;;;;7.13;3.20;;;;;;;25.41;60.63;99925.41;4890879;29;20060;-71
2023/05/23 15:09:11;;;;;;;5.38;3.15;;;;;;;25.93;59.80;99993.28;4895038;29;20029;-70
2023/05/23 15:11:37;;;;;;;4.65;2.88;;;;;;;25.97;58.03;99989.59;4895281;29;20028;-71
2023/05/23 15:14:03;;;;;;;4.05;3.00;;;;;;;26.06;59.47;99986.69;4893259;29;20156;-68
2023/05/23 15:16:31;;;;;;;5.47;3.17;;;;;;;26.10;59.95;99990.94;4877815;29;20024;-71
2023/05/23 15:18:58;;;;;;;4.70;2.70;;;;;;;26.05;59.01;99995.50;4855351;29;20038;-72
2023/05/23 15:21:24;;;;;;;5.05;2.97;;;;;;;26.00;59.28;99982.44;4855316;29;20444;-71
2023/05/23 15:23:50;;;;;;;6.03;3.08;;;;;;;25.96;59.40;99999.34;4855559;29;20045;-71
2023/05/23 15:26:15;;;;;;;11.85;3.58;;;;;;;25.77;65.06;100008.81;4855516;29;20041;-68
2023/05/23 15:28:41;;;;;;;9.50;4.50;;;;;;;25.37;67.65;100000.41;4854114;29;20049;-69
2023/05/23 15:31:06;;;;;;;6.90;3.22;;;;;;;24.55;73.10;100003.66;4855047;29;20451;-70
2023/05/23 15:33:31;;;;;;;5.30;3.53;;;;;;;23.68;75.77;99973.41;4855519;29;20077;-72
2023/05/23 15:35:58;;;;;;;8.52;3.65;;;;;;;23.41;75.73;99980.25;4855328;29;20397;-69
2023/05/23 15:38:23;;;;;;;9.10;3.72;;;;;;;23.52;77.06;100014.25;4853956;29;20068;-72
2023/05/23 15:40:51;;;;;;;6.45;3.85;;;;;;;23.56;77.62;100024.69;4855552;29;20504;-72
2023/05/23 15:43:16;;;;;;;7.10;4.00;;;;;;;23.45;77.76;100002.09;4849423;29;20094;-72
2023/05/23 15:45:42;;;;;;;9.57;3.80;;;;;;;23.40;78.48;100016.25;4854921;29;20081;-69
2023/05/23 15:48:07;;;;;;;8.27;3.42;;;;;;;23.05;80.53;100007.38;4855494;29;20455;-72
2023/05/23 15:50:33;;;;;;;7.20;3.97;;;;;;;22.72;80.90;100020.34;4884813;29;20044;-73
2023/05/23 15:52:59;;;;;;;5.97;3.90;;;;;;;22.57;81.58;100039.06;4889920;29;20101;-73
2023/05/23 15:55:24;;;;;;;5.32;3.80;;;;;;;22.19;84.16;100027.47;4894707;29;20051;-72
2023/05/23 15:57:49;;;;;;;8.73;3.75;;;;;;;22.27;83.29;100029.06;4894264;29;20067;-71
2023/05/23 16:00:15;;;;;;;6.20;3.58;;;;;;;21.78;82.56;99977.34;4894723;29;20032;-72
2023/05/23 16:02:41;;;;;;;7.63;4.07;;;;;;;22.13;84.24;100039.84;4894533;29;20044;-73
2023/05/23 16:05:06;;;;;;;8.27;4.60;;;;;;;21.84;85.15;99961.47;4892259;29;20021;-73
2023/05/23 16:07:33;;;;;;;5.15;3.63;;;;;;;22.30;84.78;100034.25;4891708;29;20033;-73
2023/05/23 16:09:59;;;;;;;6.07;3.65;;;;;;;22.41;84.86;100039.34;4898347;29;20037;-73
2023/05/23 16:12:24;;;;;;;9.15;4.38;;;;;;;22.53;85.32;100042.63;4881843;29;20044;-73
2023/05/23 16:14:50;;;;;;;5.55;3.75;;;;;;;22.61;85.68;100043.38;4897972;29;20060;-72
2023/05/23 16:17:15;;;;;;;6.70;3.58;;;;;;;22.65;84.90;100052.06;4898534;29;20037;-72
2023/05/23 16:19:41;;;;;;;5.93;3.53;;;;;;;22.52;83.76;100054.03;4898156;29;20081;-71
2023/05/23 16:22:06;;;;;;;6.85;3.85;;;;;;;22.18;83.05;100002.94;4875506;29;20041;-71
2023/05/23 16:24:31;;;;;;;7.60;3.60;;;;;;;22.54;83.09;100058.41;4897896;29;20040;-71
2023/05/23 16:26:58;;;;;;;7.45;3.85;;;;;;;22.69;83.92;100067.78;4859093;29;20056;-70
2023/05/23 16:29:23;;;;;;;6.63;3.78;;;;;;;22.77;84.14;100072.88;4857488;29;20963;-72
2023/05/23 16:31:49;;;;;;;5.50;4.15;;;;;;;22.80;84.03;100050.91;4859706;29;20052;-71
2023/05/23 16:34:14;;;;;;;7.82;4.57;;;;;;;22.93;83.67;100074.28;4858248;29;20049;-70
2023/05/23 16:36:40;;;;;;;13.55;3.80;;;;;;;22.98;83.58;100068.94;4862873;29;20103;-70
2023/05/23 16:39:05;;;;;;;7.30;3.63;;;;;;;22.98;83.22;100073.31;4811610;29;20046;-71
2023/05/23 16:41:30;;;;;;;9.90;4.50;;;;;;;22.77;84.17;100055.31;4857167;29;20052;-71
2023/05/23 16:43:56;;;;;;;5.90;3.75;;;;;;;22.61;84.04;100035.47;4857729;29;20038;-72
2023/05/23 16:46:21;;;;;;;9.38;4.20;;;;;;;22.84;84.62;100063.09;4850502;29;20136;-69
2023/05/23 16:48:47;;;;;;;6.85;4.28;;;;;;;22.66;84.54;100030.97;4856390;29;20134;-68
2023/05/23 16:51:15;;;;;;;11.77;3.97;;;;;;;22.98;84.68;100082.09;4855425;29;20049;-69
2023/05/23 16:53:40;;;;;;;7.78;3.78;;;;;;;22.96;85.28;100075.16;4857814;29;20113;-70
2023/05/23 16:56:05;;;;;;;8.60;4.35;;;;;;;22.75;84.98;100037.81;4858116;29;20038;-71
2023/05/23 16:58:34;;;;;;;6.70;4.10;;;;;;;23.07;85.11;100083.69;4885219;29;20052;-71
2023/05/23 17:01:00;;;;;;;9.93;4.38;;;;;;;22.86;86.61;100038.47;4897115;29;20399;-71
2023/05/23 17:03:27;;;;;;;7.25;4.38;;;;;;;23.09;87.63;100080.13;4880764;29;20040;-71
2023/05/23 17:05:53;;;;;;;8.15;5.00;;;;;;;23.14;90.44;100079.13;4890964;29;20036;-71
2023/05/23 17:08:19;;;;;;;9.48;5.00;;;;;;;23.26;92.56;100089.44;4884720;29;20040;-70
2023/05/23 17:10:44;;;;;;;8.00;4.63;;;;;;;23.05;91.34;100070.56;4885800;29;20479;-71
2023/05/23 17:13:10;;;;;;;8.40;4.60;;;;;;;22.80;91.85;100066.69;4889017;29;20463;-71
2023/05/23 17:15:35;;;;;;;10.02;5.68;;;;;;;22.99;93.03;100077.69;4881307;29;20499;-71
2023/05/23 17:18:01;;;;;;;10.15;5.68;;;;;;;22.84;94.58;100066.59;4890824;29;20021;-73
2023/05/23 17:20:26;;;;;;;8.70;5.20;;;;;;;22.81;93.57;100071.06;4897172;29;20028;-70
2023/05/23 17:22:51;;;;;;;8.68;5.05;;;;;;;22.50;95.59;100071.66;4884351;29;20037;-71
2023/05/23 17:25:17;;;;;;;11.45;5.20;;;;;;;22.21;94.64;100017.78;4884559;29;20380;-71
2023/05/23 17:27:43;;;;;;;7.85;4.55;;;;;;;22.51;94.84;100084.75;4896476;29;20059;-72
2023/05/23 17:30:13;;;;;;;9.75;5.43;;;;;;;22.32;95.27;100042.13;4897404;29;20089;-70
2023/05/23 17:32:38;;;;;;;;;;;;;;;22.42;95.77;100075.28;4881013;29;20128;-70
2023/05/23 17:35:04;;;;;;;8.60;4.63;;;;;;;22.02;96.93;100025.13;4896715;29;20010;-70
2023/05/23 17:37:30;;;;;;;8.40;5.30;;;;;;;22.25;98.54;100079.94;4896546;29;20040;-70
2023/05/23 17:39:55;;;;;;;7.10;4.95;;;;;;;21.85;97.69;99999.16;4896663;29;20801;-70
2023/05/23 17:42:21;;;;;;;9.50;4.80;;;;;;;22.00;98.00;100019.03;4896345;29;20036;-70
2023/05/23 17:44:46;;;;;;;8.23;5.25;;;;;;;22.37;100.00;100098.16;4897288;29;20032;-71
2023/05/23 17:47:11;;;;;;;9.60;5.05;;;;;;;22.32;98.92;100089.47;4897282;29;20048;-70
2023/05/23 17:49:37;;;;;;;7.55;4.80;;;;;;;22.34;96.69;100092.91;4896877;29;20032;-71
2023/05/23 17:52:05;;;;;;;7.38;4.63;;;;;;;22.30;96.46;100092.09;4897080;29;20033;-71
2023/05/23 17:54:31;;;;;;;6.70;4.70;;;;;;;22.37;96.07;100103.44;4889865;29;20029;-71
2023/05/23 17:56:56;;;;;;;7.43;4.75;;;;;;;22.26;95.66;100094.84;4891537;29;20877;-72
2023/05/23 17:59:22;;;;;;;8.85;4.63;;;;;;;22.33;95.98;100108.72;4895259;29;20064;-71
2023/05/23 18:01:49;;;;;;;7.20;4.40;;;;;;;22.25;96.14;100103.59;4895040;29;20028;-71
2023/05/23 18:04:14;;;;;;;7.15;4.95;;;;;;;22.31;97.68;100119.28;4875322;29;20040;-71
2023/05/23 18:06:40;;;;;;;7.45;5.03;;;;;;;22.28;98.47;100112.31;4895797;29;20025;-71
2023/05/23 18:09:10;;;;;;;8.70;4.88;;;;;;;22.26;99.16;100116.72;4873025;29;20711;-71
2023/05/23 18:11:36;;;;;;;6.32;4.70;;;;;;;21.96;99.14;100069.03;4877952;29;20037;-71
2023/05/23 18:14:02;;;;;;;6.65;4.65;;;;;;;21.79;99.27;100064.06;4892033;29;20043;-71
2023/05/23 18:16:27;;;;;;;6.45;4.90;;;;;;;21.99;99.81;100128.56;4895481;29;20039;-71
2023/05/23 18:18:52;;;;;;;8.98;4.95;;;;;;;21.92;100.00;100126.91;4895977;29;20040;-69
2023/05/23 18:21:18;;;;;;;7.13;4.53;;;;;;;21.84;100.00;100120.91;4882870;29;20036;-70
2023/05/23 18:23:43;;;;;;;7.97;5.32;;;;;;;21.90;100.00;100133.97;4894911;29;20040;-71
2023/05/23 18:26:09;;;;;;;8.48;5.45;;;;;;;21.95;99.93;100138.25;4895826;29;20033;-70
2023/05/23 18:28:36;;;;;;;8.77;5.40;;;;;;;21.99;99.55;100144.31;4895795;29;20028;-70
2023/05/23 18:31:01;;;;;;;10.18;5.60;;;;;;;21.80;99.31;100130.59;4892937;29;20035;-70
2023/05/23 18:33:28;;;;;;;11.35;5.68;;;;;;;21.78;100.00;100142.88;4877168;29;20127;-70
2023/05/23 18:35:54;;;;;;;10.68;6.10;;;;;;;21.80;100.00;100143.75;4895457;29;20509;-70
2023/05/23 18:38:23;;;;;;;9.80;6.13;;;;;;;21.81;99.92;100145.47;4862830;29;20052;-68
2023/05/23 18:40:49;;;;;;;8.95;5.82;;;;;;;21.82;99.89;100147.22;4877602;29;20037;-69
2023/05/23 18:43:16;;;;;;;10.07;6.50;;;;;;;21.86;100.00;100150.66;4894863;29;20036;-69
2023/05/23 18:45:42;;;;;;;8.50;6.15;;;;;;;21.84;100.00;100160.34;4895153;29;20635;-69
2023/05/23 18:48:07;;;;;;;8.18;5.95;;;;;;;21.61;100.00;100164.16;4893688;29;20513;-69
2023/05/23 18:50:33;;;;;;;7.88;5.63;;;;;;;21.56;100.00;100152.81;4894869;29;20036;-70
2023/05/23 18:52:59;;;;;;;8.40;5.82;;;;;;;21.43;100.00;100145.09;4895335;29;20048;-69
2023/05/23 18:55:24;;;;;;;10.55;6.20;;;;;;;21.44;100.00;100154.69;4878188;29;20052;-69
2023/05/23 18:57:51;;;;;;;10.77;6.60;;;;;;;21.55;100.00;100165.06;4895772;29;20061;-69
2023/05/23 19:00:17;;;;;;;13.32;6.63;;;;;;;21.50;100.00;100146.72;4895955;29;20079;-69
2023/05/23 19:02:44;;;;;;;8.57;6.20;;;;;;;21.52;100.00;100159.88;4895532;29;20034;-69
2023/05/23 19:05:10;;;;;;;8.05;5.88;;;;;;;20.93;100.00;100075.72;4895689;29;20036;-69
2023/05/23 19:07:35;;;;;;;8.75;6.35;;;;;;;21.33;100.00;100164.47;4878737;29;20028;-69
2023/05/23 19:10:01;;;;;;;12.73;6.60;;;;;;;21.00;100.00;100162.22;4892793;29;20420;-69
2023/05/23 19:12:27;;;;;;;10.00;6.20;;;;;;;21.07;100.00;100170.91;4895684;29;20087;-69
2023/05/23 19:14:52;;;;;;;11.00;6.70;;;;;;;21.02;100.00;100167.44;4894689;29;20043;-69
2023/05/23 19:17:18;;;;;;;9.82;5.93;;;;;;;21.07;100.00;100183.16;4893578;29;20040;-69
2023/05/23 19:19:43;;;;;;;8.90;5.38;;;;;;;20.86;100.00;100177.25;4895032;29;20024;-69
2023/05/23 19:22:09;;;;;;;7.50;5.45;;;;;;;20.87;100.00;100181.59;4876843;29;20036;-70
2023/05/23 19:24:36;;;;;;;7.47;6.00;;;;;;;20.64;100.00;100152.97;4893845;29;20107;-70
2023/05/23 19:27:01;;;;;;;9.48;5.70;;;;;;;20.74;100.00;100185.25;4895005;29;20025;-69
2023/05/23 19:29:27;;;;;;;10.30;5.53;;;;;;;20.29;100.00;100127.94;4895082;29;20112;-69
2023/05/23 19:31:53;;;;;;;9.63;5.50;;;;;;;20.54;100.00;100173.16;4895180;29;20111;-69
2023/05/23 19:34:18;;;;;;;8.98;5.68;;;;;;;20.44;100.00;100174.13;4894516;29;20037;-69
2023/05/23 19:36:44;;;;;;;8.23;5.57;;;;;;;20.38;100.00;100208.25;4894958;29;20039;-70
2023/05/23 19:39:11;;;;;;;9.35;5.90;;;;;;;20.14;100.00;100176.09;4893345;29;20374;-70
2023/05/23 19:41:37;;;;;;;10.07;5.65;;;;;;;19.99;100.00;100191.03;4895039;29;20051;-71
2023/05/23 19:44:03;;;;;;;10.35;6.47;;;;;;;19.52;100.00;100176.41;4893841;29;20039;-69
2023/05/23 19:46:28;;;;;;;11.60;6.32;;;;;;;19.71;100.00;100206.00;4884630;29;20036;-68
2023/05/23 19:48:56;;;;;;;9.23;6.30;;;;;;;19.68;100.00;100206.03;4890186;29;20069;-68
2023/05/23 19:51:25;;;;;;;8.70;5.97;;;;;;;19.53;100.00;100191.25;4893444;29;20039;-68
2023/05/23 19:53:53;;;;;;;7.57;5.93;;;;;;;19.53;100.00;100199.97;4894452;29;20040;-67
2023/05/23 19:56:20;;;;;;;8.80;5.68;;;;;;;19.04;100.00;100134.72;4877035;29;20153;-70
2023/05/23 19:58:46;;;;;;;8.50;6.18;;;;;;;19.20;100.00;100199.22;4894381;29;20052;-72
2023/05/23 20:01:12;;;;;;;12.50;5.88;;;;;;;19.36;100.00;100200.03;4883995;29;20456;-73
2023/05/23 20:03:37;;;;;;;10.90;5.97;;;;;;;19.21;100.00;100190.47;4879667;29;20036;-73
2023/05/23 20:06:03;;;;;;;8.77;5.90;;;;;;;19.14;100.00;100188.78;4886688;29;20116;-71
2023/05/23 20:08:28;;;;;;;8.45;5.97;;;;;;;18.77;100.00;100120.81;4895269;29;20120;-72
2023/05/23 20:10:54;;;;;;;7.85;5.90;;;;;;;19.22;100.00;100210.53;4897908;29;20031;-75
2023/05/23 20:13:20;;;;;;;10.63;6.07;;;;;;;18.80;100.00;100146.94;4902536;29;20111;-69
2023/05/23 20:15:46;;;;;;;9.60;6.60;;;;;;;19.12;100.00;100208.84;4893917;29;20115;-70
2023/05/23 20:18:11;;;;;;;10.27;5.93;;;;;;;18.76;100.00;100140.00;4898548;29;20115;-71
2023/05/23 20:20:37;;;;;;;9.98;6.07;;;;;;;19.11;100.00;100209.69;4885269;29;20037;-68
2023/05/23 20:23:03;;;;;;;9.95;6.22;;;;;;;19.04;100.00;100208.84;4888918;29;20028;-68
2023/05/23 20:25:30;;;;;;;8.57;6.55;;;;;;;19.02;100.00;100204.50;4894884;29;20036;-68
2023/05/23 20:27:55;;;;;;;10.48;6.35;;;;;;;18.92;100.00;100188.81;4894435;29;20028;-68
2023/05/23 20:30:21;;;;;;;10.55;6.13;;;;;;;18.85;100.00;100183.56;4894478;29;20430;-73
2023/05/23 20:32:51;;;;;;;9.60;6.30;;;;;;;18.89;100.00;100209.72;4894471;29;20043;-70
2023/05/23 20:35:18;;;;;;;8.90;6.20;;;;;;;18.70;100.00;100187.06;4877797;29;20490;-69
2023/05/23 20:37:44;;;;;;;9.65;6.10;;;;;;;18.66;100.00;100206.25;4894508;29;20044;-71
2023/05/23 20:40:09;;;;;;;8.13;6.28;;;;;;;18.48;100.00;100176.63;4894851;29;20029;-71
2023/05/23 20:42:35;;;;;;;9.70;6.28;;;;;;;17.67;100.00;100024.22;4876327;29;20498;-73
2023/05/23 20:45:04;;;;;;;11.10;6.00;;;;;;;17.93;100.00;100141.72;4877494;29;20666;-70
2023/05/23 20:47:29;;;;;;;7.00;5.75;;;;;;;18.14;100.00;100204.47;4894419;29;20432;-69
2023/05/23 20:49:55;;;;;;;9.68;6.03;;;;;;;18.01;100.00;100195.75;4894394;29;20036;-69
2023/05/23 20:52:21;;;;;;;7.95;6.13;;;;;;;17.61;100.00;100128.63;4897580;29;20505;-72
2023/05/23 20:54:47;;;;;;;7.55;6.03;;;;;;;18.14;100.00;100201.88;4897704;29;20052;-69
2023/05/23 20:57:16;;;;;;;11.88;6.65;;;;;;;18.11;100.00;100200.13;4897512;29;20424;-68
2023/05/23 20:59:42;;;;;;;9.98;6.35;;;;;;;18.08;100.00;100180.09;4897928;29;20025;-68
2023/05/23 21:02:07;;;;;;;10.02;5.88;;;;;;;18.28;100.00;100194.94;4896319;29;20043;-70
2023/05/23 21:04:33;;;;;;;12.07;6.10;;;;;;;17.85;100.00;100126.94;4884143;29;20044;-73
2023/05/23 21:07:00;;;;;;;8.60;6.15;;;;;;;18.23;100.00;100194.91;4880750;29;20041;-72
2023/05/23 21:09:25;;;;;;;10.07;6.35;;;;;;;18.37;100.00;100194.94;4897067;29;20051;-68
2023/05/23 21:11:50;;;;;;;10.13;6.78;;;;;;;18.36;100.00;100184.47;4883036;29;20483;-68
2023/05/23 21:14:16;;;;;;;9.90;6.32;;;;;;;18.56;100.00;100205.38;4888880;29;20061;-70
2023/05/23 21:16:41;;;;;;;8.90;6.47;;;;;;;18.65;100.00;100200.13;4890033;29;20491;-70
2023/05/23 21:19:07;;;;;;;9.15;6.97;;;;;;;18.27;100.00;100172.28;4868862;29;20044;-73
2023/05/23 21:21:33;;;;;;;11.05;7.13;;;;;;;18.03;100.00;100115.66;4896288;29;20025;-68
2023/05/23 21:23:58;;;;;;;8.75;6.32;;;;;;;18.53;100.00;100198.41;4896966;29;20040;-67
2023/05/23 21:26:24;;;;;;;8.93;6.45;;;;;;;18.55;100.00;100212.34;4897112;29;20033;-69
2023/05/23 21:28:49;;;;;;;9.32;6.20;;;;;;;18.42;100.00;100219.31;4880241;29;20039;-69
2023/05/23 21:31:15;;;;;;;7.38;5.78;;;;;;;18.34;100.00;100213.19;4896601;29;20044;-69
2023/05/23 21:33:40;;;;;;;8.85;5.95;;;;;;;18.15;100.00;100211.47;4896465;29;20029;-71
2023/05/23 21:36:06;;;;;;;8.20;5.55;;;;;;;17.74;100.00;100147.78;4896914;29;20036;-73
2023/05/23 21:38:34;;;;;;;7.72;5.63;;;;;;;18.12;100.00;100222.78;4897022;29;20033;-69
2023/05/23 21:41:00;;;;;;;9.48;6.32;;;;;;;17.99;100.00;100205.31;4896972;29;20033;-66
2023/05/23 21:43:25;;;;;;;7.32;5.25;;;;;;;18.09;100.00;100225.38;4897070;29;20063;-68
2023/05/23 21:45:51;;;;;;;10.73;5.35;;;;;;;18.08;100.00;100236.69;4896362;29;20020;-69
2023/05/23 21:48:16;;;;;;;9.73;5.90;;;;;;;17.97;100.00;100228.84;4896787;29;20048;-67
2023/05/23 21:50:42;;;;;;;10.90;6.45;;;;;;;17.51;100.00;100163.38;4880060;29;20025;-67
2023/05/23 21:53:07;;;;;;;7.55;6.15;;;;;;;17.69;100.00;100183.44;4880317;29;20037;-68
2023/05/23 21:55:34;;;;;;;9.57;6.53;;;;;;;17.67;100.00;100185.19;4896755;29;20028;-68
2023/05/23 21:57:59;;;;;;;11.00;6.53;;;;;;;17.93;100.00;100224.41;4896811;29;20104;-69
2023/05/23 22:00:26;;;;;;;7.85;5.85;;;;;;;18.04;100.00;100224.50;4896384;29;20107;-71
2023/05/23 22:02:52;;;;;;;8.15;6.50;;;;;;;17.62;100.00;100148.63;4895276;29;20033;-68
2023/05/23 22:05:17;;;;;;;7.75;6.40;;;;;;;18.02;100.00;100208.81;4879192;29;20092;-70
2023/05/23 22:07:42;;;;;;;8.65;6.40;;;;;;;17.87;100.00;100173.06;4879605;29;20064;-73
2023/05/23 22:10:08;;;;;;;8.70;6.13;;;;;;;17.83;100.00;100162.59;4896027;29;20025;-73
2023/05/23 22:12:35;;;;;;;9.30;5.95;;;;;;;17.59;100.00;100109.47;4879485;29;20036;-72
2023/05/23 22:15:00;;;;;;;8.23;6.38;;;;;;;17.98;100.00;100201.84;4879069;29;20021;-69
2023/05/23 22:17:25;;;;;;;9.52;6.63;;;;;;;17.99;100.00;100210.56;4896094;29;20025;-70
2023/05/23 22:19:55;;;;;;;8.02;6.13;;;;;;;17.79;100.00;100190.44;4896070;29;20108;-69
2023/05/23 22:22:21;;;;;;;10.60;6.20;;;;;;;17.77;100.00;100177.38;4896288;29;20037;-69
2023/05/23 22:24:47;;;;;;;9.10;5.78;;;;;;;17.59;100.00;100186.00;4896289;29;20091;-69
2023/05/23 22:27:12;;;;;;;8.68;6.30;;;;;;;17.70;100.00;100195.66;4896026;29;20575;-69
2023/05/23 22:29:38;;;;;;;8.40;6.18;;;;;;;17.71;100.00;100202.63;4895707;29;20544;-71
2023/05/23 22:32:03;;;;;;;11.07;6.43;;;;;;;17.71;100.00;100200.00;4878922;29;20028;-69
2023/05/23 22:34:29;;;;;;;11.27;6.65;;;;;;;17.59;100.00;100180.78;4895814;29;20032;-69
2023/05/23 22:36:55;;;;;;;9.07;5.93;;;;;;;17.54;100.00;100173.84;4895927;29;20036;-72
2023/05/23 22:39:21;;;;;;;13.27;6.13;;;;;;;17.53;100.00;100179.91;4895851;29;20020;-69
2023/05/23 22:41:46;;;;;;;9.93;6.30;;;;;;;17.34;100.00;100147.66;4895786;29;20032;-69
2023/05/23 22:44:12;;;;;;;12.57;6.03;;;;;;;17.56;100.00;100178.19;4895182;29;20045;-70
2023/05/23 22:46:38;;;;;;;12.82;6.88;;;;;;;17.55;100.00;100180.81;4879019;29;20036;-70
2023/05/23 22:49:03;;;;;;;7.72;6.35;;;;;;;17.71;100.00;100194.78;4895532;29;20076;-69
2023/05/23 22:51:32;;;;;;;8.80;6.07;;;;;;;17.42;100.00;100152.03;4896012;29;20071;-69
2023/05/23 22:53:58;;;;;;;9.27;6.75;;;;;;;17.38;100.00;100172.91;4895450;29;20087;-70
2023/05/23 22:56:23;;;;;;;9.63;6.25;;;;;;;17.27;100.00;100172.84;4878896;29;20044;-69
2023/05/23 22:58:49;;;;;;;11.52;6.68;;;;;;;17.28;100.00;100188.53;4895307;29;20056;-71
2023/05/23 23:01:14;;;;;;;11.38;6.25;;;;;;;17.17;100.00;100194.53;4895510;29;20071;-71
2023/05/23 23:03:40;;;;;;;11.48;7.03;;;;;;;16.97;100.00;100177.91;4895335;29;20091;-69
2023/05/23 23:06:05;;;;;;;12.60;7.03;;;;;;;16.98;100.00;100197.03;4895529;29;20037;-69
2023/05/23 23:08:31;;;;;;;11.50;6.20;;;;;;;16.72;100.00;100192.47;4895072;29;20033;-69
2023/05/23 23:10:56;;;;;;;8.05;6.20;;;;;;;16.76;100.00;100189.03;4895266;29;20040;-73
2023/05/23 23:13:23;;;;;;;10.68;6.72;;;;;;;16.71;100.00;100185.53;4894918;29;20056;-75
2023/05/23 23:15:49;;;;;;;8.85;6.18;;;;;;;16.65;100.00;100186.34;4895147;29;20036;-71
2023/05/23 23:18:15;;;;;;;8.30;6.22;;;;;;;16.76;100.00;100193.38;4894815;29;20039;-69
2023/05/23 23:20:41;;;;;;;14.25;6.38;;;;;;;16.27;100.00;100115.72;4895719;29;20035;-70
2023/05/23 23:23:06;;;;;;;12.90;7.18;;;;;;;16.73;100.00;100181.19;4894990;29;20036;-68
2023/05/23 23:25:32;;;;;;;7.82;6.00;;;;;;;16.48;100.00;100131.50;4895250;29;20028;-68
2023/05/23 23:27:57;;;;;;;10.15;6.38;;;;;;;16.76;100.00;100172.50;4895190;29;20479;-71
2023/05/23 23:30:23;;;;;;;9.73;6.47;;;;;;;16.74;100.00;100169.03;4895416;29;20035;-70
2023/05/23 23:32:48;;;;;;;9.77;5.82;;;;;;;16.62;100.00;100135.94;4895391;29;20032;-69
2023/05/23 23:35:14;;;;;;;9.20;6.30;;;;;;;16.70;100.00;100135.97;4895354;29;20101;-69
2023/05/23 23:37:39;;;;;;;8.23;5.88;;;;;;;16.92;100.00;100168.31;4895414;29;20047;-68
2023/05/23 23:40:07;;;;;;;8.00;6.13;;;;;;;17.10;100.00;100185.81;4895009;29;20020;-73
2023/05/23 23:42:33;;;;;;;9.95;6.55;;;;;;;16.91;100.00;100167.44;4894742;29;20033;-70
2023/05/23 23:44:59;;;;;;;10.40;7.50;;;;;;;16.95;100.00;100166.59;4895198;29;20047;-74
2023/05/23 23:47:25;;;;;;;10.50;7.28;;;;;;;17.04;100.00;100157.94;4877799;29;20447;-66
2023/05/23 23:49:50;;;;;;;10.20;6.68;;;;;;;17.10;100.00;100157.13;4895110;29;20036;-68
2023/05/23 23:52:16;;;;;;;12.65;6.80;;;;;;;17.18;100.00;100178.88;4894757;29;20037;-69
2023/05/23 23:54:42;;;;;;;9.38;6.97;;;;;;;17.13;100.00;100163.22;4895102;29;20052;-68
2023/05/23 23:57:12;;;;;;;15.63;7.25;;;;;;;17.16;100.00;100161.47;4894331;29;20503;-70
2023/05/23 23:59:39;;;;;;;9.93;7.53;;;;;;;17.17;100.00;100177.16;4895155;29;20037;-70
